sensor_id;sensor_type;location;lat;lon;timestamp;temperature;humidity
18450;DHT22;9354;50.194;7.690;2023-02-11T00:01:35;4.10;99.90
18450;DHT22;9354;50.194;7.690;2023-02-11T00:04:03;4.10;99.90
18450;DHT22;9354;50.194;7.690;2023-02-11T00:06:32;4.20;99.90
18450;DHT22;9354;50.194;7.690;2023-02-11T00:08:59;4.20;99.90
18450;DHT22;9354;50.194;7.690;2023-02-11T00:11:28;4.20;99.90
18450;DHT22;9354;50.194;7.690;2023-02-11T00:13:55;4.20;99.90
18450;DHT22;9354;50.194;7.690;2023-02-11T00:16:24;4.20;99.90
18450;DHT22;9354;50.194;7.690;2023-02-11T00:18:52;4.20;99.90
18450;DHT22;9354;50.194;7.690;2023-02-11T00:21:21;4.20;99.90
18450;DHT22;9354;50.194;7.690;2023-02-11T00:23:49;4.20;99.90
18450;DHT22;9354;50.194;7.690;2023-02-11T00:26:18;4.20;99.90
18450;DHT22;9354;50.194;7.690;2023-02-11T00:28:47;4.10;99.90
18450;DHT22;9354;50.194;7.690;2023-02-11T00:31:16;4.10;99.90
18450;DHT22;9354;50.194;7.690;2023-02-11T00:33:45;4.10;99.90
18450;DHT22;9354;50.194;7.690;2023-02-11T00:36:15;4.10;99.90
18450;DHT22;9354;50.194;7.690;2023-02-11T00:38:43;4.10;99.90
18450;DHT22;9354;50.194;7.690;2023-02-11T00:41:11;4.10;99.90
18450;DHT22;9354;50.194;7.690;2023-02-11T00:43:38;4.00;99.90
18450;DHT22;9354;50.194;7.690;2023-02-11T00:46:06;3.90;99.90
18450;DHT22;9354;50.194;7.690;2023-02-11T00:48:34;3.90;99.90
18450;DHT22;9354;50.194;7.690;2023-02-11T00:51:03;3.90;99.90
18450;DHT22;9354;50.194;7.690;2023-02-11T00:53:33;3.90;99.90
18450;DHT22;9354;50.194;7.690;2023-02-11T00:56:01;3.90;99.90
18450;DHT22;9354;50.194;7.690;2023-02-11T00:58:29;3.90;99.90
18450;DHT22;9354;50.194;7.690;2023-02-11T01:00:56;3.90;99.90
18450;DHT22;9354;50.194;7.690;2023-02-11T01:03:24;3.90;99.90
18450;DHT22;9354;50.194;7.690;2023-02-11T01:05:51;3.90;99.90
18450;DHT22;9354;50.194;7.690;2023-02-11T01:08:20;3.90;99.90
18450;DHT22;9354;50.194;7.690;2023-02-11T01:10:56;3.90;99.90
18450;DHT22;9354;50.194;7.690;2023-02-11T01:13:23;3.90;99.90
18450;DHT22;9354;50.194;7.690;2023-02-11T01:15:51;3.90;99.90
18450;DHT22;9354;50.194;7.690;2023-02-11T01:18:18;3.90;99.90
18450;DHT22;9354;50.194;7.690;2023-02-11T01:20:46;3.90;99.90
18450;DHT22;9354;50.194;7.690;2023-02-11T01:23:13;3.90;99.90
18450;DHT22;9354;50.194;7.690;2023-02-11T01:25:42;3.90;99.90
18450;DHT22;9354;50.194;7.690;2023-02-11T01:28:15;4.00;99.90
18450;DHT22;9354;50.194;7.690;2023-02-11T01:30:42;4.00;99.90
18450;DHT22;9354;50.194;7.690;2023-02-11T01:33:10;4.00;99.90
18450;DHT22;9354;50.194;7.690;2023-02-11T01:35:37;4.00;99.90
18450;DHT22;9354;50.194;7.690;2023-02-11T01:38:06;4.00;99.90
18450;DHT22;9354;50.194;7.690;2023-02-11T01:40:33;4.00;99.90
18450;DHT22;9354;50.194;7.690;2023-02-11T01:43:02;4.00;99.90
18450;DHT22;9354;50.194;7.690;2023-02-11T01:45:58;4.00;99.90
18450;DHT22;9354;50.194;7.690;2023-02-11T01:48:29;4.00;99.90
18450;DHT22;9354;50.194;7.690;2023-02-11T01:51:02;4.00;99.90
18450;DHT22;9354;50.194;7.690;2023-02-11T01:53:31;4.00;99.90
18450;DHT22;9354;50.194;7.690;2023-02-11T01:56:17;4.10;99.90
18450;DHT22;9354;50.194;7.690;2023-02-11T01:59:10;4.10;99.90
18450;DHT22;9354;50.194;7.690;2023-02-11T02:01:39;4.10;99.90
18450;DHT22;9354;50.194;7.690;2023-02-11T02:04:09;4.00;99.90
18450;DHT22;9354;50.194;7.690;2023-02-11T02:06:43;4.00;99.90
18450;DHT22;9354;50.194;7.690;2023-02-11T02:09:16;4.00;99.90
18450;DHT22;9354;50.194;7.690;2023-02-11T02:11:46;4.00;99.90
18450;DHT22;9354;50.194;7.690;2023-02-11T02:14:15;4.00;99.90
18450;DHT22;9354;50.194;7.690;2023-02-11T02:16:43;4.00;99.90
18450;DHT22;9354;50.194;7.690;2023-02-11T02:25:34;4.00;99.90
18450;DHT22;9354;50.194;7.690;2023-02-11T02:28:12;4.00;99.90
18450;DHT22;9354;50.194;7.690;2023-02-11T02:31:23;4.00;99.90
18450;DHT22;9354;50.194;7.690;2023-02-11T02:33:54;4.00;99.90
18450;DHT22;9354;50.194;7.690;2023-02-11T02:36:26;3.90;99.90
18450;DHT22;9354;50.194;7.690;2023-02-11T02:38:57;4.00;99.90
18450;DHT22;9354;50.194;7.690;2023-02-11T02:41:28;4.00;99.90
18450;DHT22;9354;50.194;7.690;2023-02-11T02:43:57;4.00;99.90
18450;DHT22;9354;50.194;7.690;2023-02-11T02:46:26;4.10;99.90
18450;DHT22;9354;50.194;7.690;2023-02-11T02:48:56;4.10;99.90
18450;DHT22;9354;50.194;7.690;2023-02-11T02:51:44;4.10;99.90
18450;DHT22;9354;50.194;7.690;2023-02-11T02:54:37;4.10;99.90
18450;DHT22;9354;50.194;7.690;2023-02-11T02:57:18;4.10;99.90
18450;DHT22;9354;50.194;7.690;2023-02-11T03:00:00;4.10;99.90
18450;DHT22;9354;50.194;7.690;2023-02-11T03:02:32;4.10;99.90
18450;DHT22;9354;50.194;7.690;2023-02-11T03:05:07;4.10;99.90
18450;DHT22;9354;50.194;7.690;2023-02-11T03:07:40;4.00;99.90
18450;DHT22;9354;50.194;7.690;2023-02-11T03:10:14;4.00;99.90
18450;DHT22;9354;50.194;7.690;2023-02-11T03:12:43;4.00;99.90
18450;DHT22;9354;50.194;7.690;2023-02-11T03:15:13;4.00;99.90
18450;DHT22;9354;50.194;7.690;2023-02-11T03:17:42;4.00;99.90
18450;DHT22;9354;50.194;7.690;2023-02-11T03:20:15;4.00;99.90
18450;DHT22;9354;50.194;7.690;2023-02-11T03:22:47;4.00;99.90
18450;DHT22;9354;50.194;7.690;2023-02-11T03:25:17;4.00;99.90
18450;DHT22;9354;50.194;7.690;2023-02-11T03:27:47;3.90;99.90
18450;DHT22;9354;50.194;7.690;2023-02-11T03:30:20;3.90;99.90
18450;DHT22;9354;50.194;7.690;2023-02-11T03:32:51;3.90;99.90
18450;DHT22;9354;50.194;7.690;2023-02-11T03:35:23;3.90;99.90
18450;DHT22;9354;50.194;7.690;2023-02-11T03:37:57;3.90;99.90
18450;DHT22;9354;50.194;7.690;2023-02-11T03:40:28;3.90;99.90
18450;DHT22;9354;50.194;7.690;2023-02-11T03:42:59;3.90;99.90
18450;DHT22;9354;50.194;7.690;2023-02-11T03:45:28;3.90;99.90
18450;DHT22;9354;50.194;7.690;2023-02-11T03:47:59;3.90;99.90
18450;DHT22;9354;50.194;7.690;2023-02-11T03:50:29;3.90;99.90
18450;DHT22;9354;50.194;7.690;2023-02-11T03:53:00;3.80;99.90
18450;DHT22;9354;50.194;7.690;2023-02-11T03:55:29;3.80;99.90
18450;DHT22;9354;50.194;7.690;2023-02-11T03:57:57;3.70;99.90
18450;DHT22;9354;50.194;7.690;2023-02-11T04:00:29;3.70;99.90
18450;DHT22;9354;50.194;7.690;2023-02-11T04:02:56;3.70;99.90
18450;DHT22;9354;50.194;7.690;2023-02-11T04:05:24;3.70;99.90
18450;DHT22;9354;50.194;7.690;2023-02-11T04:07:53;3.60;99.90
18450;DHT22;9354;50.194;7.690;2023-02-11T04:10:20;3.60;99.90
18450;DHT22;9354;50.194;7.690;2023-02-11T04:12:48;3.60;99.90
18450;DHT22;9354;50.194;7.690;2023-02-11T04:15:17;3.60;99.90
18450;DHT22;9354;50.194;7.690;2023-02-11T04:17:44;3.60;99.90
18450;DHT22;9354;50.194;7.690;2023-02-11T04:20:12;3.60;99.90
18450;DHT22;9354;50.194;7.690;2023-02-11T04:22:40;3.60;99.90
18450;DHT22;9354;50.194;7.690;2023-02-11T04:25:09;3.60;99.90
18450;DHT22;9354;50.194;7.690;2023-02-11T04:27:37;3.60;99.90
18450;DHT22;9354;50.194;7.690;2023-02-11T04:30:05;3.60;99.90
18450;DHT22;9354;50.194;7.690;2023-02-11T04:32:33;3.60;99.90
18450;DHT22;9354;50.194;7.690;2023-02-11T04:35:00;3.50;99.90
18450;DHT22;9354;50.194;7.690;2023-02-11T04:37:28;3.50;99.90
18450;DHT22;9354;50.194;7.690;2023-02-11T04:39:56;3.50;99.90
18450;DHT22;9354;50.194;7.690;2023-02-11T04:42:24;3.40;99.90
18450;DHT22;9354;50.194;7.690;2023-02-11T04:44:52;3.40;99.90
18450;DHT22;9354;50.194;7.690;2023-02-11T04:47:19;3.40;99.90
18450;DHT22;9354;50.194;7.690;2023-02-11T04:49:46;3.40;99.90
18450;DHT22;9354;50.194;7.690;2023-02-11T04:52:14;3.40;99.90
18450;DHT22;9354;50.194;7.690;2023-02-11T04:54:41;3.40;99.90
18450;DHT22;9354;50.194;7.690;2023-02-11T04:57:08;3.40;99.90
18450;DHT22;9354;50.194;7.690;2023-02-11T04:59:37;3.40;99.90
18450;DHT22;9354;50.194;7.690;2023-02-11T05:02:05;3.40;99.90
18450;DHT22;9354;50.194;7.690;2023-02-11T05:04:32;3.40;99.90
18450;DHT22;9354;50.194;7.690;2023-02-11T05:07:00;3.40;99.90
18450;DHT22;9354;50.194;7.690;2023-02-11T05:09:27;3.40;99.90
18450;DHT22;9354;50.194;7.690;2023-02-11T05:11:55;3.40;99.90
18450;DHT22;9354;50.194;7.690;2023-02-11T05:14:22;3.40;99.90
18450;DHT22;9354;50.194;7.690;2023-02-11T05:16:51;3.40;99.90
18450;DHT22;9354;50.194;7.690;2023-02-11T05:19:18;3.40;99.90
18450;DHT22;9354;50.194;7.690;2023-02-11T05:21:46;3.40;99.90
18450;DHT22;9354;50.194;7.690;2023-02-11T05:24:13;3.40;99.90
18450;DHT22;9354;50.194;7.690;2023-02-11T05:26:40;3.40;99.90
18450;DHT22;9354;50.194;7.690;2023-02-11T05:29:10;3.40;99.90
18450;DHT22;9354;50.194;7.690;2023-02-11T05:31:38;3.30;99.90
18450;DHT22;9354;50.194;7.690;2023-02-11T05:34:06;3.30;99.90
18450;DHT22;9354;50.194;7.690;2023-02-11T05:36:34;3.30;99.90
18450;DHT22;9354;50.194;7.690;2023-02-11T05:39:01;3.30;99.90
18450;DHT22;9354;50.194;7.690;2023-02-11T05:41:28;3.30;99.90
18450;DHT22;9354;50.194;7.690;2023-02-11T05:43:56;3.40;99.90
18450;DHT22;9354;50.194;7.690;2023-02-11T05:46:23;3.40;99.90
18450;DHT22;9354;50.194;7.690;2023-02-11T05:48:50;3.30;99.90
18450;DHT22;9354;50.194;7.690;2023-02-11T05:51:19;3.30;99.90
18450;DHT22;9354;50.194;7.690;2023-02-11T05:53:46;3.30;99.90
18450;DHT22;9354;50.194;7.690;2023-02-11T05:56:14;3.30;99.90
18450;DHT22;9354;50.194;7.690;2023-02-11T05:58:41;3.30;99.90
18450;DHT22;9354;50.194;7.690;2023-02-11T06:01:09;3.20;99.90
18450;DHT22;9354;50.194;7.690;2023-02-11T06:03:39;3.20;99.90
18450;DHT22;9354;50.194;7.690;2023-02-11T06:06:08;3.20;99.90
18450;DHT22;9354;50.194;7.690;2023-02-11T06:08:38;3.20;99.90
18450;DHT22;9354;50.194;7.690;2023-02-11T06:11:06;3.20;99.90
18450;DHT22;9354;50.194;7.690;2023-02-11T06:13:34;3.20;99.90
18450;DHT22;9354;50.194;7.690;2023-02-11T06:16:02;3.20;99.90
18450;DHT22;9354;50.194;7.690;2023-02-11T06:18:29;3.20;99.90
18450;DHT22;9354;50.194;7.690;2023-02-11T06:20:58;3.20;99.90
18450;DHT22;9354;50.194;7.690;2023-02-11T06:23:25;3.20;99.90
18450;DHT22;9354;50.194;7.690;2023-02-11T06:25:54;3.30;99.90
18450;DHT22;9354;50.194;7.690;2023-02-11T06:28:34;3.30;99.90
18450;DHT22;9354;50.194;7.690;2023-02-11T06:31:04;3.30;99.90
18450;DHT22;9354;50.194;7.690;2023-02-11T06:33:32;3.30;99.90
18450;DHT22;9354;50.194;7.690;2023-02-11T06:36:00;3.30;99.90
18450;DHT22;9354;50.194;7.690;2023-02-11T06:38:27;3.30;99.90
18450;DHT22;9354;50.194;7.690;2023-02-11T06:40:56;3.30;99.90
18450;DHT22;9354;50.194;7.690;2023-02-11T06:43:23;3.30;99.90
18450;DHT22;9354;50.194;7.690;2023-02-11T06:45:54;3.30;99.90
18450;DHT22;9354;50.194;7.690;2023-02-11T06:48:22;3.30;99.90
18450;DHT22;9354;50.194;7.690;2023-02-11T06:50:49;3.30;99.90
18450;DHT22;9354;50.194;7.690;2023-02-11T06:53:17;3.30;99.90
18450;DHT22;9354;50.194;7.690;2023-02-11T06:55:44;3.30;99.90
18450;DHT22;9354;50.194;7.690;2023-02-11T06:58:13;3.30;99.90
18450;DHT22;9354;50.194;7.690;2023-02-11T07:00:41;3.30;99.90
18450;DHT22;9354;50.194;7.690;2023-02-11T07:03:08;3.30;99.90
18450;DHT22;9354;50.194;7.690;2023-02-11T07:05:35;3.30;99.90
18450;DHT22;9354;50.194;7.690;2023-02-11T07:08:03;3.30;99.90
18450;DHT22;9354;50.194;7.690;2023-02-11T07:10:31;3.30;99.90
18450;DHT22;9354;50.194;7.690;2023-02-11T07:12:59;3.30;99.90
18450;DHT22;9354;50.194;7.690;2023-02-11T07:15:28;3.30;99.90
18450;DHT22;9354;50.194;7.690;2023-02-11T07:17:55;3.40;99.90
18450;DHT22;9354;50.194;7.690;2023-02-11T07:20:23;3.40;99.90
18450;DHT22;9354;50.194;7.690;2023-02-11T07:22:50;3.40;99.90
18450;DHT22;9354;50.194;7.690;2023-02-11T07:25:18;3.50;99.90
18450;DHT22;9354;50.194;7.690;2023-02-11T07:27:45;3.50;99.90
18450;DHT22;9354;50.194;7.690;2023-02-11T07:30:13;3.50;99.90
18450;DHT22;9354;50.194;7.690;2023-02-11T07:32:42;3.60;99.90
18450;DHT22;9354;50.194;7.690;2023-02-11T07:35:09;3.60;99.90
18450;DHT22;9354;50.194;7.690;2023-02-11T07:37:37;3.70;99.90
18450;DHT22;9354;50.194;7.690;2023-02-11T07:40:05;3.70;99.90
18450;DHT22;9354;50.194;7.690;2023-02-11T07:42:33;3.80;99.90
18450;DHT22;9354;50.194;7.690;2023-02-11T07:45:00;3.90;99.90
18450;DHT22;9354;50.194;7.690;2023-02-11T07:47:28;4.00;99.90
18450;DHT22;9354;50.194;7.690;2023-02-11T07:49:56;4.10;99.90
18450;DHT22;9354;50.194;7.690;2023-02-11T07:52:24;4.20;99.90
18450;DHT22;9354;50.194;7.690;2023-02-11T07:54:51;4.30;99.90
18450;DHT22;9354;50.194;7.690;2023-02-11T07:57:18;4.30;99.90
18450;DHT22;9354;50.194;7.690;2023-02-11T07:59:46;4.40;99.90
18450;DHT22;9354;50.194;7.690;2023-02-11T08:02:13;4.40;99.90
18450;DHT22;9354;50.194;7.690;2023-02-11T08:04:40;4.50;99.90
18450;DHT22;9354;50.194;7.690;2023-02-11T08:07:09;4.50;99.90
18450;DHT22;9354;50.194;7.690;2023-02-11T08:09:36;4.60;99.90
18450;DHT22;9354;50.194;7.690;2023-02-11T08:12:04;4.60;99.90
18450;DHT22;9354;50.194;7.690;2023-02-11T08:14:31;4.50;99.90
18450;DHT22;9354;50.194;7.690;2023-02-11T08:16:59;4.50;99.90
18450;DHT22;9354;50.194;7.690;2023-02-11T08:19:26;4.50;99.90
18450;DHT22;9354;50.194;7.690;2023-02-11T08:21:54;4.60;99.90
18450;DHT22;9354;50.194;7.690;2023-02-11T08:24:23;4.60;99.90
18450;DHT22;9354;50.194;7.690;2023-02-11T08:26:50;4.60;99.90
18450;DHT22;9354;50.194;7.690;2023-02-11T08:29:18;4.70;99.90
18450;DHT22;9354;50.194;7.690;2023-02-11T08:31:46;4.60;99.90
18450;DHT22;9354;50.194;7.690;2023-02-11T08:34:14;4.70;99.90
18450;DHT22;9354;50.194;7.690;2023-02-11T08:36:45;4.70;99.90
18450;DHT22;9354;50.194;7.690;2023-02-11T08:39:15;4.70;99.90
18450;DHT22;9354;50.194;7.690;2023-02-11T08:41:44;4.70;99.90
18450;DHT22;9354;50.194;7.690;2023-02-11T08:44:13;4.70;99.90
18450;DHT22;9354;50.194;7.690;2023-02-11T08:46:40;4.70;99.90
18450;DHT22;9354;50.194;7.690;2023-02-11T08:49:08;4.70;99.90
18450;DHT22;9354;50.194;7.690;2023-02-11T08:51:35;4.80;99.90
18450;DHT22;9354;50.194;7.690;2023-02-11T08:54:02;4.80;99.90
18450;DHT22;9354;50.194;7.690;2023-02-11T08:56:34;4.80;99.90
18450;DHT22;9354;50.194;7.690;2023-02-11T08:59:03;4.80;99.90
18450;DHT22;9354;50.194;7.690;2023-02-11T09:01:31;4.80;99.90
18450;DHT22;9354;50.194;7.690;2023-02-11T09:03:59;4.80;99.90
18450;DHT22;9354;50.194;7.690;2023-02-11T09:06:27;4.80;99.90
18450;DHT22;9354;50.194;7.690;2023-02-11T09:08:56;4.80;99.90
18450;DHT22;9354;50.194;7.690;2023-02-11T09:11:26;4.80;99.90
18450;DHT22;9354;50.194;7.690;2023-02-11T09:13:53;4.80;99.90
18450;DHT22;9354;50.194;7.690;2023-02-11T09:16:24;4.80;99.90
18450;DHT22;9354;50.194;7.690;2023-02-11T09:18:52;4.80;99.90
18450;DHT22;9354;50.194;7.690;2023-02-11T09:21:20;4.80;99.90
18450;DHT22;9354;50.194;7.690;2023-02-11T09:23:48;4.80;99.90
18450;DHT22;9354;50.194;7.690;2023-02-11T09:26:17;4.80;99.90
18450;DHT22;9354;50.194;7.690;2023-02-11T09:28:45;4.80;99.90
18450;DHT22;9354;50.194;7.690;2023-02-11T09:31:15;4.80;99.90
18450;DHT22;9354;50.194;7.690;2023-02-11T09:33:46;4.80;99.90
18450;DHT22;9354;50.194;7.690;2023-02-11T09:36:15;4.80;99.90
18450;DHT22;9354;50.194;7.690;2023-02-11T09:38:43;4.80;99.90
18450;DHT22;9354;50.194;7.690;2023-02-11T09:41:32;4.80;99.90
18450;DHT22;9354;50.194;7.690;2023-02-11T09:44:03;4.80;99.90
18450;DHT22;9354;50.194;7.690;2023-02-11T09:46:35;4.80;99.90
18450;DHT22;9354;50.194;7.690;2023-02-11T09:49:05;4.80;99.90
18450;DHT22;9354;50.194;7.690;2023-02-11T09:51:38;4.80;99.90
18450;DHT22;9354;50.194;7.690;2023-02-11T09:54:12;4.80;99.90
18450;DHT22;9354;50.194;7.690;2023-02-11T09:56:43;4.90;99.90
18450;DHT22;9354;50.194;7.690;2023-02-11T09:59:13;4.80;99.90
18450;DHT22;9354;50.194;7.690;2023-02-11T10:01:45;4.90;99.90
18450;DHT22;9354;50.194;7.690;2023-02-11T10:04:25;4.90;99.90
18450;DHT22;9354;50.194;7.690;2023-02-11T10:06:56;4.90;99.90
18450;DHT22;9354;50.194;7.690;2023-02-11T10:09:51;4.90;99.90
18450;DHT22;9354;50.194;7.690;2023-02-11T10:12:45;5.00;99.90
18450;DHT22;9354;50.194;7.690;2023-02-11T10:15:20;5.00;99.90
18450;DHT22;9354;50.194;7.690;2023-02-11T10:18:16;5.00;99.90
18450;DHT22;9354;50.194;7.690;2023-02-11T10:20:55;5.00;99.90
18450;DHT22;9354;50.194;7.690;2023-02-11T10:23:32;5.00;99.90
18450;DHT22;9354;50.194;7.690;2023-02-11T10:26:00;5.00;99.90
18450;DHT22;9354;50.194;7.690;2023-02-11T10:28:30;5.00;99.90
18450;DHT22;9354;50.194;7.690;2023-02-11T10:30:59;5.00;99.90
18450;DHT22;9354;50.194;7.690;2023-02-11T10:33:30;5.00;99.90
18450;DHT22;9354;50.194;7.690;2023-02-11T10:36:02;5.10;99.90
18450;DHT22;9354;50.194;7.690;2023-02-11T10:38:29;5.10;99.90
18450;DHT22;9354;50.194;7.690;2023-02-11T10:40:58;5.10;99.90
18450;DHT22;9354;50.194;7.690;2023-02-11T10:43:27;5.10;99.90
18450;DHT22;9354;50.194;7.690;2023-02-11T10:45:57;5.10;99.90
18450;DHT22;9354;50.194;7.690;2023-02-11T10:48:40;5.10;99.90
18450;DHT22;9354;50.194;7.690;2023-02-11T10:51:18;5.10;99.90
18450;DHT22;9354;50.194;7.690;2023-02-11T10:53:47;5.20;99.90
18450;DHT22;9354;50.194;7.690;2023-02-11T10:56:21;5.20;99.90
18450;DHT22;9354;50.194;7.690;2023-02-11T10:58:58;5.20;99.90
18450;DHT22;9354;50.194;7.690;2023-02-11T11:01:40;5.20;99.90
18450;DHT22;9354;50.194;7.690;2023-02-11T11:04:32;5.20;99.90
18450;DHT22;9354;50.194;7.690;2023-02-11T11:07:12;5.20;99.90
18450;DHT22;9354;50.194;7.690;2023-02-11T11:09:49;5.20;99.90
18450;DHT22;9354;50.194;7.690;2023-02-11T11:12:29;5.20;99.90
18450;DHT22;9354;50.194;7.690;2023-02-11T11:14:59;5.30;99.90
18450;DHT22;9354;50.194;7.690;2023-02-11T11:17:27;5.30;99.90
18450;DHT22;9354;50.194;7.690;2023-02-11T11:20:13;5.30;99.90
18450;DHT22;9354;50.194;7.690;2023-02-11T11:22:42;5.30;99.90
18450;DHT22;9354;50.194;7.690;2023-02-11T11:25:24;5.30;99.90
18450;DHT22;9354;50.194;7.690;2023-02-11T11:27:54;5.40;99.90
18450;DHT22;9354;50.194;7.690;2023-02-11T11:30:25;5.40;99.90
18450;DHT22;9354;50.194;7.690;2023-02-11T11:32:53;5.40;99.90
18450;DHT22;9354;50.194;7.690;2023-02-11T11:35:24;5.40;99.90
18450;DHT22;9354;50.194;7.690;2023-02-11T11:37:56;5.50;99.90
18450;DHT22;9354;50.194;7.690;2023-02-11T11:40:26;5.50;99.90
18450;DHT22;9354;50.194;7.690;2023-02-11T11:43:05;5.50;99.90
18450;DHT22;9354;50.194;7.690;2023-02-11T11:45:33;5.50;99.90
18450;DHT22;9354;50.194;7.690;2023-02-11T11:48:03;5.50;99.90
18450;DHT22;9354;50.194;7.690;2023-02-11T11:50:40;5.50;99.90
18450;DHT22;9354;50.194;7.690;2023-02-11T11:53:15;5.50;99.90
18450;DHT22;9354;50.194;7.690;2023-02-11T11:55:49;5.50;99.90
18450;DHT22;9354;50.194;7.690;2023-02-11T11:58:21;5.50;99.90
18450;DHT22;9354;50.194;7.690;2023-02-11T12:00:54;5.50;99.90
18450;DHT22;9354;50.194;7.690;2023-02-11T12:06:34;5.60;99.90
18450;DHT22;9354;50.194;7.690;2023-02-11T12:09:12;5.70;99.90
18450;DHT22;9354;50.194;7.690;2023-02-11T12:11:57;5.70;99.90
18450;DHT22;9354;50.194;7.690;2023-02-11T12:14:37;5.70;99.90
18450;DHT22;9354;50.194;7.690;2023-02-11T12:17:17;5.80;99.90
18450;DHT22;9354;50.194;7.690;2023-02-11T12:19:58;5.80;99.90
18450;DHT22;9354;50.194;7.690;2023-02-11T12:22:40;5.80;99.90
18450;DHT22;9354;50.194;7.690;2023-02-11T12:25:25;5.90;99.90
18450;DHT22;9354;50.194;7.690;2023-02-11T12:28:10;5.90;99.90
18450;DHT22;9354;50.194;7.690;2023-02-11T12:30:50;5.90;99.90
18450;DHT22;9354;50.194;7.690;2023-02-11T12:33:31;5.90;99.90
18450;DHT22;9354;50.194;7.690;2023-02-11T12:36:06;6.00;99.90
18450;DHT22;9354;50.194;7.690;2023-02-11T12:41:57;6.10;99.90
18450;DHT22;9354;50.194;7.690;2023-02-11T12:44:58;6.10;99.90
18450;DHT22;9354;50.194;7.690;2023-02-11T12:47:39;6.00;99.90
18450;DHT22;9354;50.194;7.690;2023-02-11T12:50:17;6.00;99.90
18450;DHT22;9354;50.194;7.690;2023-02-11T12:53:09;6.00;99.90
18450;DHT22;9354;50.194;7.690;2023-02-11T12:55:43;6.00;99.90
18450;DHT22;9354;50.194;7.690;2023-02-11T12:58:16;6.00;99.90
18450;DHT22;9354;50.194;7.690;2023-02-11T13:00:48;6.00;99.90
18450;DHT22;9354;50.194;7.690;2023-02-11T13:03:21;5.90;99.90
18450;DHT22;9354;50.194;7.690;2023-02-11T13:05:52;5.90;99.90
18450;DHT22;9354;50.194;7.690;2023-02-11T13:08:24;5.90;99.90
18450;DHT22;9354;50.194;7.690;2023-02-11T13:10:57;5.90;99.90
18450;DHT22;9354;50.194;7.690;2023-02-11T13:13:30;5.90;99.90
18450;DHT22;9354;50.194;7.690;2023-02-11T13:16:02;5.90;99.90
18450;DHT22;9354;50.194;7.690;2023-02-11T13:18:43;6.00;99.90
18450;DHT22;9354;50.194;7.690;2023-02-11T13:21:29;6.10;99.90
18450;DHT22;9354;50.194;7.690;2023-02-11T13:24:05;6.20;99.90
18450;DHT22;9354;50.194;7.690;2023-02-11T13:26:39;6.30;99.90
18450;DHT22;9354;50.194;7.690;2023-02-11T13:29:21;6.40;99.90
18450;DHT22;9354;50.194;7.690;2023-02-11T13:31:53;6.40;99.90
18450;DHT22;9354;50.194;7.690;2023-02-11T13:34:25;6.50;99.90
18450;DHT22;9354;50.194;7.690;2023-02-11T13:36:54;6.50;99.90
18450;DHT22;9354;50.194;7.690;2023-02-11T13:39:22;6.50;99.90
18450;DHT22;9354;50.194;7.690;2023-02-11T13:41:50;6.60;99.90
18450;DHT22;9354;50.194;7.690;2023-02-11T13:44:26;6.60;99.90
18450;DHT22;9354;50.194;7.690;2023-02-11T13:46:57;6.60;99.90
18450;DHT22;9354;50.194;7.690;2023-02-11T13:49:30;6.60;99.90
18450;DHT22;9354;50.194;7.690;2023-02-11T13:51:58;6.60;99.90
18450;DHT22;9354;50.194;7.690;2023-02-11T13:54:32;6.60;99.90
18450;DHT22;9354;50.194;7.690;2023-02-11T13:57:31;6.60;99.90
18450;DHT22;9354;50.194;7.690;2023-02-11T14:00:05;6.60;99.90
18450;DHT22;9354;50.194;7.690;2023-02-11T14:02:36;6.50;99.90
18450;DHT22;9354;50.194;7.690;2023-02-11T14:05:24;6.50;99.90
18450;DHT22;9354;50.194;7.690;2023-02-11T14:08:20;6.50;99.90
18450;DHT22;9354;50.194;7.690;2023-02-11T14:11:42;6.50;99.90
18450;DHT22;9354;50.194;7.690;2023-02-11T14:14:22;6.40;99.90
18450;DHT22;9354;50.194;7.690;2023-02-11T14:19:49;6.40;99.90
18450;DHT22;9354;50.194;7.690;2023-02-11T14:22:21;6.40;99.90
18450;DHT22;9354;50.194;7.690;2023-02-11T14:24:53;6.40;99.90
18450;DHT22;9354;50.194;7.690;2023-02-11T14:27:27;6.40;99.90
18450;DHT22;9354;50.194;7.690;2023-02-11T14:30:10;6.50;99.90
18450;DHT22;9354;50.194;7.690;2023-02-11T14:32:50;6.50;99.90
18450;DHT22;9354;50.194;7.690;2023-02-11T14:35:40;6.50;99.90
18450;DHT22;9354;50.194;7.690;2023-02-11T14:38:16;6.50;99.90
18450;DHT22;9354;50.194;7.690;2023-02-11T14:40:51;6.50;99.90
18450;DHT22;9354;50.194;7.690;2023-02-11T14:43:24;6.50;99.90
18450;DHT22;9354;50.194;7.690;2023-02-11T14:45:55;6.50;99.90
18450;DHT22;9354;50.194;7.690;2023-02-11T14:48:27;6.60;99.90
18450;DHT22;9354;50.194;7.690;2023-02-11T14:51:00;6.60;99.90
18450;DHT22;9354;50.194;7.690;2023-02-11T14:53:30;6.60;99.90
18450;DHT22;9354;50.194;7.690;2023-02-11T14:55:59;6.60;99.90
18450;DHT22;9354;50.194;7.690;2023-02-11T14:58:27;6.60;99.90
18450;DHT22;9354;50.194;7.690;2023-02-11T15:00:58;6.60;99.90
18450;DHT22;9354;50.194;7.690;2023-02-11T15:03:31;6.60;99.90
18450;DHT22;9354;50.194;7.690;2023-02-11T15:06:02;6.60;99.90
18450;DHT22;9354;50.194;7.690;2023-02-11T15:08:32;6.60;99.90
18450;DHT22;9354;50.194;7.690;2023-02-11T15:11:02;6.60;99.90
18450;DHT22;9354;50.194;7.690;2023-02-11T15:13:31;6.60;99.90
18450;DHT22;9354;50.194;7.690;2023-02-11T15:16:05;6.60;99.90
18450;DHT22;9354;50.194;7.690;2023-02-11T15:18:36;6.60;99.90
18450;DHT22;9354;50.194;7.690;2023-02-11T15:21:06;6.60;99.90
18450;DHT22;9354;50.194;7.690;2023-02-11T15:23:33;6.60;99.90
18450;DHT22;9354;50.194;7.690;2023-02-11T15:26:01;6.50;99.90
18450;DHT22;9354;50.194;7.690;2023-02-11T15:28:33;6.50;99.90
18450;DHT22;9354;50.194;7.690;2023-02-11T15:31:04;6.50;99.90
18450;DHT22;9354;50.194;7.690;2023-02-11T15:33:32;6.50;99.90
18450;DHT22;9354;50.194;7.690;2023-02-11T15:36:01;6.60;99.90
18450;DHT22;9354;50.194;7.690;2023-02-11T15:38:29;6.60;99.90
18450;DHT22;9354;50.194;7.690;2023-02-11T15:40:58;6.60;99.90
18450;DHT22;9354;50.194;7.690;2023-02-11T15:43:40;6.60;99.90
18450;DHT22;9354;50.194;7.690;2023-02-11T15:46:13;6.50;99.90
18450;DHT22;9354;50.194;7.690;2023-02-11T15:48:43;6.50;99.90
18450;DHT22;9354;50.194;7.690;2023-02-11T15:51:18;6.50;99.90
18450;DHT22;9354;50.194;7.690;2023-02-11T15:53:49;6.50;99.90
18450;DHT22;9354;50.194;7.690;2023-02-11T15:56:20;6.40;99.90
18450;DHT22;9354;50.194;7.690;2023-02-11T15:58:52;6.40;99.90
18450;DHT22;9354;50.194;7.690;2023-02-11T16:01:29;6.40;99.90
18450;DHT22;9354;50.194;7.690;2023-02-11T16:03:57;6.40;99.90
18450;DHT22;9354;50.194;7.690;2023-02-11T16:06:26;6.30;99.90
18450;DHT22;9354;50.194;7.690;2023-02-11T16:09:03;6.30;99.90
18450;DHT22;9354;50.194;7.690;2023-02-11T16:11:34;6.30;99.90
18450;DHT22;9354;50.194;7.690;2023-02-11T16:14:20;6.30;99.90
18450;DHT22;9354;50.194;7.690;2023-02-11T16:16:50;6.20;99.90
18450;DHT22;9354;50.194;7.690;2023-02-11T16:19:20;6.20;99.90
18450;DHT22;9354;50.194;7.690;2023-02-11T16:21:49;6.20;99.90
18450;DHT22;9354;50.194;7.690;2023-02-11T16:24:19;6.10;99.90
18450;DHT22;9354;50.194;7.690;2023-02-11T16:26:48;6.10;99.90
18450;DHT22;9354;50.194;7.690;2023-02-11T16:29:22;6.00;99.90
18450;DHT22;9354;50.194;7.690;2023-02-11T16:32:03;6.00;99.90
18450;DHT22;9354;50.194;7.690;2023-02-11T16:34:32;6.00;99.90
18450;DHT22;9354;50.194;7.690;2023-02-11T16:37:02;6.00;99.90
18450;DHT22;9354;50.194;7.690;2023-02-11T16:39:31;6.00;99.90
18450;DHT22;9354;50.194;7.690;2023-02-11T16:41:59;6.00;99.90
18450;DHT22;9354;50.194;7.690;2023-02-11T16:44:27;6.00;99.90
18450;DHT22;9354;50.194;7.690;2023-02-11T16:46:58;6.00;99.90